Time;durP1;ratioP1;P1;durP2;ratioP2;P2;SDS_P1;SDS_P2;PMS_P1;PMS_P2;Temp;Humidity;BMP_temperature;BMP_pressure;BME280_temperature;BME280_humidity;BME280_pressure;Samples;Min_cycle;Max_cycle;Signal;HPM_P1;HPM_P2
2023/08/24 00:05:40;;;;;;;1.08;0.88;;;;;;;20.78;92.62;101628.53;21159870;28;20081;-66
2023/08/24 00:15:42;;;;;;;1.02;0.60;;;;;;;20.77;92.40;101624.94;21171981;28;20039;-66
2023/08/24 00:25:44;;;;;;;0.80;0.60;;;;;;;20.77;92.14;101615.94;21171954;28;20044;-66
2023/08/24 00:35:46;;;;;;;2.17;0.88;;;;;;;20.75;91.80;101608.00;21170960;28;20047;-66
2023/08/24 00:45:47;;;;;;;0.95;0.77;;;;;;;20.73;91.41;101597.28;21151414;28;20085;-66
2023/08/24 00:55:51;;;;;;;1.23;0.63;;;;;;;20.70;91.10;101586.75;21151798;28;20062;-66
2023/08/24 01:05:53;;;;;;;1.02;0.80;;;;;;;20.63;90.62;101572.06;21133167;28;20055;-66
2023/08/24 01:16:06;;;;;;;1.83;0.90;;;;;;;20.66;90.34;101574.50;21167203;28;20047;-66
2023/08/24 01:26:26;;;;;;;1.75;0.80;;;;;;;20.65;90.19;101561.13;21183377;27;20396;-67
2023/08/24 01:36:28;;;;;;;1.25;0.82;;;;;;;20.57;90.06;101545.56;21166396;28;20492;-66
2023/08/24 01:46:30;;;;;;;0.88;0.60;;;;;;;20.59;90.00;101527.34;21165004;28;20138;-66
2023/08/24 01:56:32;;;;;;;0.80;0.80;;;;;;;20.58;89.64;101541.88;21130103;28;20437;-66
2023/08/24 02:06:34;;;;;;;0.68;0.68;;;;;;;20.56;89.63;101533.91;21145205;28;20055;-66
2023/08/24 02:16:36;;;;;;;0.60;0.60;;;;;;;20.55;89.56;101544.84;21144651;28;20048;-66
2023/08/24 02:26:38;;;;;;;1.83;1.00;;;;;;;20.50;89.44;101531.72;21161468;28;20070;-66
2023/08/24 02:36:40;;;;;;;1.30;0.80;;;;;;;20.52;89.51;101531.59;21142848;28;20043;-66
2023/08/24 02:46:44;;;;;;;1.10;0.77;;;;;;;20.46;89.30;101526.75;21159674;28;20572;-66
2023/08/24 02:56:46;;;;;;;1.23;0.95;;;;;;;20.49;89.49;101529.19;21159994;28;20399;-66
2023/08/24 03:06:48;;;;;;;1.10;1.00;;;;;;;20.36;89.34;101516.78;21164531;27;20063;-67
2023/08/24 03:16:50;;;;;;;0.77;0.70;;;;;;;20.48;89.77;101519.34;21181053;27;20505;-66
2023/08/24 03:26:51;;;;;;;0.77;0.70;;;;;;;20.46;89.52;101484.31;21154639;27;20043;-66
2023/08/24 03:36:54;;;;;;;2.17;0.70;;;;;;;20.47;89.59;101487.91;21137873;28;20051;-66
2023/08/24 03:46:56;;;;;;;3.03;1.05;;;;;;;20.36;89.36;101494.28;21137578;28;20047;-66
2023/08/24 03:56:58;;;;;;;1.65;0.73;;;;;;;20.45;89.20;101498.00;21138103;28;20047;-66
2023/08/24 04:07:00;;;;;;;1.02;0.93;;;;;;;20.43;89.18;101490.88;21136282;28;20056;-66
2023/08/24 04:17:03;;;;;;;2.45;1.10;;;;;;;20.42;88.73;101482.91;21137072;28;20093;-66
2023/08/24 04:27:05;;;;;;;2.65;0.98;;;;;;;20.36;88.59;101484.31;21154559;28;20059;-67
2023/08/24 04:37:07;;;;;;;1.38;0.70;;;;;;;20.27;88.58;101456.25;21154708;28;20060;-66
2023/08/24 04:47:09;;;;;;;0.77;0.77;;;;;;;20.39;88.65;101462.41;21154103;28;20104;-66
2023/08/24 04:57:11;;;;;;;0.68;0.68;;;;;;;20.36;88.39;101449.16;21165799;28;20050;-66
2023/08/24 05:07:12;;;;;;;1.35;0.70;;;;;;;20.33;88.15;101451.28;21168740;28;20556;-66
2023/08/24 05:17:14;;;;;;;0.95;0.85;;;;;;;20.37;88.11;101467.09;21168053;28;20430;-66
2023/08/24 05:27:16;;;;;;;1.55;1.00;;;;;;;20.36;88.14;101473.50;21164335;28;20055;-65
2023/08/24 05:37:18;;;;;;;0.82;0.70;;;;;;;20.27;88.61;101463.50;21162559;27;20047;-64
2023/08/24 05:47:19;;;;;;;0.77;0.60;;;;;;;20.38;89.18;101466.09;21182205;27;20059;-65
2023/08/24 05:57:21;;;;;;;5.30;0.90;;;;;;;20.42;89.50;101463.97;21171923;27;20131;-64
2023/08/24 06:07:24;;;;;;;0.73;0.70;;;;;;;20.46;89.66;101448.31;21178716;27;20047;-64
2023/08/24 06:17:25;;;;;;;1.48;1.05;;;;;;;20.51;89.90;101443.34;21160679;28;20399;-63
2023/08/24 06:27:27;;;;;;;0.73;0.65;;;;;;;20.57;90.14;101421.13;21143678;27;20523;-64
2023/08/24 06:37:29;;;;;;;1.45;1.08;;;;;;;20.63;90.52;101412.44;21142114;27;20048;-65
2023/08/24 06:47:30;;;;;;;4.18;1.20;;;;;;;20.64;91.21;101391.69;21134118;28;20058;-65
2023/08/24 06:57:32;;;;;;;7.07;1.50;;;;;;;20.75;91.56;101390.66;21147564;27;20504;-66
2023/08/24 07:07:35;;;;;;;1.85;1.05;;;;;;;20.81;91.75;101365.78;21153601;27;20059;-64
2023/08/24 07:17:36;;;;;;;3.53;1.40;;;;;;;20.84;91.85;101339.28;21189891;27;20055;-65
2023/08/24 07:27:38;;;;;;;3.20;1.40;;;;;;;20.95;91.92;101326.56;21242265;27;20059;-65
2023/08/24 07:37:40;;;;;;;3.17;1.60;;;;;;;21.12;92.00;101324.97;21190684;27;20055;-65
2023/08/24 07:47:42;;;;;;;2.47;1.30;;;;;;;21.26;91.76;101320.91;21150350;28;20122;-65
2023/08/24 07:57:44;;;;;;;2.30;1.90;;;;;;;21.44;91.59;101319.16;21237558;27;20071;-65
2023/08/24 08:07:46;;;;;;;2.28;1.60;;;;;;;21.66;90.99;101318.94;21168830;28;20062;-65
2023/08/24 08:17:48;;;;;;;2.47;1.60;;;;;;;21.88;90.26;101323.91;21187593;28;20039;-64
2023/08/24 08:27:50;;;;;;;1.95;1.17;;;;;;;22.35;88.22;101327.44;21184760;27;20062;-64
2023/08/24 08:37:53;;;;;;;3.05;1.80;;;;;;;22.73;85.96;101329.97;21207763;27;20071;-66
2023/08/24 08:48:00;;;;;;;2.03;1.40;;;;;;;22.52;86.53;101305.88;21152026;27;20157;-66
2023/08/24 08:58:03;;;;;;;3.55;1.48;;;;;;;22.38;87.93;101299.16;21159027;27;20055;-64
2023/08/24 09:08:06;;;;;;;2.83;1.55;;;;;;;22.31;88.19;101269.06;21166214;27;20490;-65
2023/08/24 09:18:08;;;;;;;2.28;1.83;;;;;;;22.23;89.19;101266.31;21180117;27;20054;-64
2023/08/24 09:28:10;;;;;;;2.17;1.30;;;;;;;22.13;89.40;101286.22;21176097;27;20075;-66
2023/08/24 09:38:22;;;;;;;1.67;1.45;;;;;;;22.07;90.04;101250.75;21180769;27;20043;-65
2023/08/24 09:48:23;;;;;;;1.67;1.20;;;;;;;22.02;90.27;101237.63;21193512;27;20051;-65
2023/08/24 09:58:29;;;;;;;1.63;1.35;;;;;;;21.92;90.63;101217.91;21163113;27;20086;-65
2023/08/24 10:08:36;;;;;;;1.90;1.60;;;;;;;21.80;90.94;101193.75;21209205;27;20100;-65
2023/08/24 10:18:37;;;;;;;1.98;1.65;;;;;;;21.79;91.34;101183.91;21158772;27;20054;-65
2023/08/24 10:28:39;;;;;;;1.90;1.48;;;;;;;21.74;91.70;101159.16;21162319;27;20051;-65
2023/08/24 10:38:44;;;;;;;2.65;2.08;;;;;;;21.68;91.98;101154.34;21143421;27;20047;-65
2023/08/24 10:48:45;;;;;;;2.92;2.10;;;;;;;21.68;92.42;101151.66;21158112;28;20108;-66
2023/08/24 10:59:14;;;;;;;2.50;1.60;;;;;;;21.65;92.46;101130.25;21159848;27;20086;-65
2023/08/24 11:09:17;;;;;;;2.03;1.73;;;;;;;21.61;92.88;101109.88;21151600;27;20052;-65
2023/08/24 11:19:18;;;;;;;1.55;1.40;;;;;;;21.59;93.16;101100.03;21140040;28;20491;-65
2023/08/24 11:29:20;;;;;;;1.98;1.77;;;;;;;21.61;93.40;101093.63;21146734;28;20052;-65
2023/08/24 11:39:24;;;;;;;2.35;1.73;;;;;;;21.59;93.29;101085.66;21172109;27;20412;-65
2023/08/24 11:49:26;;;;;;;3.10;1.83;;;;;;;21.56;93.43;101084.09;21155353;27;20411;-67
2023/08/24 11:59:28;;;;;;;3.28;2.13;;;;;;;21.57;94.35;101088.50;21141801;27;20047;-66
2023/08/24 12:09:30;;;;;;;3.10;2.03;;;;;;;21.59;94.28;101086.50;21182058;27;20058;-67
2023/08/24 12:19:31;;;;;;;2.10;1.90;;;;;;;21.59;94.26;101059.41;21192399;27;20039;-65
2023/08/24 12:29:33;;;;;;;2.22;1.70;;;;;;;21.62;94.52;101054.69;21192265;27;20055;-66
2023/08/24 12:39:36;;;;;;;1.85;1.75;;;;;;;21.65;94.03;101040.84;21165546;27;20408;-66
2023/08/24 12:49:38;;;;;;;2.15;1.83;;;;;;;21.67;93.99;101030.72;21187214;27;20060;-65
2023/08/24 12:59:40;;;;;;;2.83;1.60;;;;;;;21.69;94.39;101007.03;21186644;27;20039;-66
2023/08/24 13:09:42;;;;;;;2.92;2.00;;;;;;;21.70;94.29;100976.22;21201272;27;20051;-66
2023/08/24 13:19:44;;;;;;;2.67;1.70;;;;;;;21.72;94.55;100976.91;21192617;27;20047;-66
2023/08/24 13:29:46;;;;;;;2.33;1.88;;;;;;;21.72;94.60;100960.66;21177774;27;20081;-66
2023/08/24 13:39:48;;;;;;;4.25;1.80;;;;;;;21.74;94.35;100942.38;21167999;27;20056;-65
2023/08/24 13:49:50;;;;;;;3.20;2.05;;;;;;;21.72;94.55;100930.84;21172036;27;20050;-66
2023/08/24 13:59:52;;;;;;;2.92;2.20;;;;;;;21.74;94.57;100912.56;21162741;27;20039;-65
2023/08/24 14:09:54;;;;;;;2.20;2.00;;;;;;;21.71;94.78;100900.19;21164756;27;20055;-66
2023/08/24 14:20:08;;;;;;;2.30;2.10;;;;;;;21.69;95.66;100895.94;21161680;27;20122;-65
2023/08/24 14:30:11;;;;;;;2.33;2.07;;;;;;;21.65;95.92;100886.41;21180773;27;20047;-65
2023/08/24 14:40:16;;;;;;;2.30;2.00;;;;;;;21.66;96.25;100880.03;21139755;27;20047;-66
2023/08/24 14:50:17;;;;;;;1.73;1.60;;;;;;;21.68;96.56;100888.84;21155895;27;20464;-65
2023/08/24 15:00:19;;;;;;;2.10;1.90;;;;;;;21.56;97.10;100867.38;21169625;27;20058;-64
2023/08/24 15:10:21;;;;;;;3.65;2.15;;;;;;;21.67;97.85;100881.72;21103107;27;20454;-63
2023/08/24 15:20:23;;;;;;;5.28;2.38;;;;;;;21.67;98.89;100862.75;21087154;28;20507;-63
2023/08/24 15:30:25;;;;;;;2.45;2.20;;;;;;;21.68;100.00;100846.31;21072380;28;20059;-61
2023/08/24 15:40:34;;;;;;;3.90;2.13;;;;;;;21.69;100.00;100837.19;21075635;28;20044;-64
2023/08/24 15:50:37;;;;;;;2.67;2.47;;;;;;;21.76;100.00;100825.69;21068991;28;20056;-63
2023/08/24 16:00:39;;;;;;;3.97;2.60;;;;;;;21.82;100.00;100819.59;21073112;28;20507;-63
2023/08/24 16:10:42;;;;;;;2.40;2.15;;;;;;;21.80;100.00;100808.94;21085422;28;20449;-64
2023/08/24 16:20:45;;;;;;;2.40;2.08;;;;;;;21.77;100.00;100784.03;21087148;28;20056;-65
2023/08/24 16:30:48;;;;;;;3.88;2.20;;;;;;;21.74;100.00;100755.41;21090544;28;20052;-65
2023/08/24 16:40:49;;;;;;;1.92;1.80;;;;;;;21.72;100.00;100738.47;21071742;28;20055;-65
2023/08/24 16:50:52;;;;;;;2.67;2.17;;;;;;;21.64;100.00;100723.03;21082132;28;20078;-64
2023/08/24 17:00:54;;;;;;;3.33;2.38;;;;;;;21.68;100.00;100742.53;21066520;28;20102;-65
2023/08/24 17:10:55;;;;;;;4.15;2.60;;;;;;;21.63;100.00;100734.84;21090250;28;20052;-63
2023/08/24 17:20:58;;;;;;;3.22;2.55;;;;;;;21.60;100.00;100735.19;21106615;28;20062;-63
2023/08/24 17:30:59;;;;;;;2.75;2.47;;;;;;;21.56;100.00;100702.16;21081737;28;20063;-62
2023/08/24 17:41:02;;;;;;;3.15;2.53;;;;;;;21.56;100.00;100704.88;21049530;28;20048;-62
2023/08/24 17:51:07;;;;;;;3.50;2.65;;;;;;;21.55;100.00;100692.34;21081159;28;20055;-62
2023/08/24 18:01:09;;;;;;;2.97;2.63;;;;;;;21.51;100.00;100677.44;21117560;28;20058;-62
2023/08/24 18:11:11;;;;;;;3.90;2.50;;;;;;;21.47;100.00;100672.53;21092932;28;20109;-62
2023/08/24 18:21:13;;;;;;;5.75;3.35;;;;;;;21.42;100.00;100652.19;21075258;28;20071;-62
2023/08/24 18:31:15;;;;;;;3.85;3.00;;;;;;;21.40;100.00;100654.22;21076619;28;20044;-62
2023/08/24 18:41:16;;;;;;;3.72;3.05;;;;;;;21.37;100.00;100651.00;21047034;28;20082;-62
2023/08/24 18:51:18;;;;;;;3.80;3.40;;;;;;;21.32;100.00;100623.59;21054079;28;20625;-62
2023/08/24 19:01:20;;;;;;;4.50;3.72;;;;;;;21.30;100.00;100630.00;21075984;28;20044;-62
2023/08/24 19:11:22;;;;;;;5.68;3.70;;;;;;;21.26;100.00;100608.84;21075493;28;20060;-63
2023/08/24 19:21:26;;;;;;;4.20;3.50;;;;;;;21.23;100.00;100614.59;21074343;28;20420;-62
2023/08/24 19:31:28;;;;;;;5.75;4.03;;;;;;;21.22;100.00;100596.66;21073860;28;20059;-62
2023/08/24 19:41:30;;;;;;;6.55;3.78;;;;;;;21.20;100.00;100610.34;21073995;28;20101;-62
2023/08/24 19:51:32;;;;;;;5.22;4.38;;;;;;;21.20;100.00;100598.69;20996347;28;20054;-62
2023/08/24 20:01:34;;;;;;;5.75;4.50;;;;;;;21.19;100.00;100614.06;20989439;28;20045;-62
2023/08/24 20:11:36;;;;;;;6.38;4.45;;;;;;;21.18;100.00;100628.59;20988487;28;20467;-62
2023/08/24 20:21:38;;;;;;;6.22;4.20;;;;;;;21.16;100.00;100641.47;20989941;28;20049;-62
2023/08/24 20:31:39;;;;;;;6.32;4.60;;;;;;;21.14;100.00;100627.25;21003672;28;20067;-62
2023/08/24 20:41:41;;;;;;;4.65;3.90;;;;;;;21.11;100.00;100617.59;21008688;28;20040;-62
2023/08/24 20:51:43;;;;;;;4.20;3.67;;;;;;;21.10;100.00;100582.56;21085832;28;20568;-62
2023/08/24 21:01:45;;;;;;;5.50;4.00;;;;;;;21.07;100.00;100599.16;21086308;28;20062;-62
2023/08/24 21:11:47;;;;;;;4.57;3.50;;;;;;;21.06;100.00;100584.78;21084238;28;20048;-62
2023/08/24 21:21:48;;;;;;;4.55;3.88;;;;;;;21.03;100.00;100568.00;21082968;28;20105;-62
2023/08/24 21:31:50;;;;;;;3.90;3.50;;;;;;;20.99;100.00;100557.53;21083033;28;20499;-62
2023/08/24 21:41:52;;;;;;;5.47;3.20;;;;;;;21.01;100.00;100550.06;21082179;28;20056;-62
2023/08/24 21:51:54;;;;;;;4.05;3.42;;;;;;;21.01;100.00;100562.78;21081425;28;20052;-62
2023/08/24 22:01:56;;;;;;;4.20;3.22;;;;;;;21.01;100.00;100609.63;21081271;28;20052;-62
2023/08/24 22:11:58;;;;;;;3.53;3.08;;;;;;;21.00;100.00;100605.22;21079297;28;20117;-62
2023/08/24 22:22:00;;;;;;;3.75;3.25;;;;;;;20.99;100.00;100621.59;21079600;28;20044;-62
2023/08/24 22:32:02;;;;;;;4.70;3.70;;;;;;;20.98;100.00;100596.41;21079527;28;20545;-62
2023/08/24 22:42:04;;;;;;;4.55;3.50;;;;;;;20.97;100.00;100583.03;21076601;28;20052;-62
2023/08/24 22:52:05;;;;;;;4.30;3.50;;;;;;;20.97;100.00;100574.91;21076451;28;20052;-62
2023/08/24 23:02:07;;;;;;;4.50;3.60;;;;;;;20.95;100.00;100591.34;21076659;28;20069;-62
2023/08/24 23:12:10;;;;;;;4.07;3.25;;;;;;;20.94;100.00;100577.97;21074912;28;20079;-62
2023/08/24 23:22:11;;;;;;;3.60;3.30;;;;;;;20.92;100.00;100567.31;21075662;28;20044;-62
2023/08/24 23:32:13;;;;;;;4.35;3.50;;;;;;;20.88;100.00;100568.66;21074189;28;20143;-62
2023/08/24 23:42:21;;;;;;;6.43;4.20;;;;;;;20.88;100.00;100556.97;21073342;28;20044;-62
2023/08/24 23:52:23;;;;;;;4.53;3.22;;;;;;;20.86;100.00;100555.28;21072996;28;20055;-62
